Aérodrome :
LOGIN :

S'inscrire | Disclaimer

   EN    FR    IT 

 










Légende :    VFR   VFR Marginal   IFR   IFR Intensif   IFR Très Intensif
Visi : 
Plafond : 
>= 8 km
>= 3000ft
5 à 8 km
1000 à 3000 ft
1500m à 5 km
500 à 1000 ft
800 à 1500m
200 à 500 ft
< 800m
< 200 ft
Symboles :   Orages  Brouillard  Fortes neiges  Fortes précipitations  Vent > 20 kt
SIGMETs :   Divers  Orages  Givrage  Turbulence  Onde Orograph.  Cendres Volcan.






- Altitude de l'aérodrome : 17 ft
- Code IATA : GRQ


EHGG - Groningen Eelde

DERNIER METAR :
  • 112025Z AUTO 20007KT 3300 BR BKN006 05/04 Q1002 TEMPO NSC

METARs EXPIRÉS :
  • 111955Z AUTO 20007KT 3700 BR FEW006 SCT007 05/04 Q1002 TEMPO BKN006
  • 111925Z AUTO 19007KT 4400 BR SCT006 BKN007 BKN009 05/04 Q1002 TEMPO BKN040
  • 111855Z AUTO 20009KT 5000 BR FEW012 SCT016 BKN020 05/05 Q1003 TEMPO BKN012
  • 111825Z AUTO 19007KT 4600 BR BKN040 OVC045 05/05 Q1003 NOSIG
  • 111755Z AUTO 20007KT 5000 BR SCT026 05/04 Q1003 TEMPO 6000 NSW BKN006

TAF TAF EHGG
Valide du 11 à 18h jusqu'au 13 à 00h UTC


111721Z 1118/1224 19008KT 7000 SCT006 SCT040
TEMPO 1118/1120 4000 BR BKN006
BECMG 1120/1123 4000 BR BKN003
TEMPO 1203/1209 -RADZ BKN006
BECMG 1207/1210 23010KT 9999 NSW SCT030
BECMG 1212/1215 18010KT
BECMG 1218/1221 15015G26KT



MET'MAP, la Météo Aéronautique d'un coup d'oeil ! - Copyright ORBIFLY Décembre 2007 - Disclaimer

ORBIFLY MET'MAP TEAM :

Programmation & Développement : Alexandra Zaïnal
Sur une idée originale de : Baudouin d'Aumeries
Assistance à la programmation : Marc-Olivier Méhu
Soutien technique & logistique : Manuel Goepfert

Contact : metmap@orbifly.com




SOURCES & CREDITS :

   NOAA